createdAt,value
2024-01-07T00:01:51.563Z,102077.78
2024-01-07T00:04:19.680Z,102086.66
2024-01-07T00:06:48.381Z,102081.38
2024-01-07T00:09:17.192Z,102080.50
2024-01-07T00:11:44.581Z,102091.63
2024-01-07T00:14:12.116Z,102093.31
2024-01-07T00:16:41.554Z,102088.13
2024-01-07T00:19:09.351Z,102089.94
2024-01-07T00:21:36.882Z,102096.00
2024-01-07T00:24:04.994Z,102104.66
2024-01-07T00:26:32.489Z,102096.13
2024-01-07T00:28:59.969Z,102104.88
2024-01-07T00:31:27.520Z,102103.97
2024-01-07T00:33:55.200Z,102102.97
2024-01-07T00:36:22.874Z,102106.25
2024-01-07T00:38:50.268Z,102106.13
2024-01-07T00:41:17.676Z,102106.94
2024-01-07T00:43:44.980Z,102124.84
2024-01-07T00:46:12.406Z,102122.94
2024-01-07T00:48:39.868Z,102122.72
2024-01-07T00:51:07.376Z,102116.53
2024-01-07T00:53:34.680Z,102130.25
2024-01-07T00:56:02.110Z,102134.09
2024-01-07T00:58:29.469Z,102140.16
2024-01-07T01:00:57.005Z,102135.88
2024-01-07T01:03:24.635Z,102139.03
2024-01-07T01:05:52.216Z,102143.44
2024-01-07T01:08:19.670Z,102142.56
2024-01-07T01:10:47.017Z,102144.69
2024-01-07T01:13:14.431Z,102153.25
2024-01-07T01:15:41.940Z,102160.06
2024-01-07T01:18:09.464Z,102158.41
2024-01-07T01:20:36.886Z,102164.47
2024-01-07T01:23:04.386Z,102161.19
2024-01-07T01:25:31.843Z,102164.78
2024-01-07T01:27:59.829Z,102174.38
2024-01-07T01:30:28.830Z,102181.13
2024-01-07T01:32:56.916Z,102177.53
2024-01-07T01:35:24.614Z,102187.88
2024-01-07T01:37:51.955Z,102193.03
2024-01-07T01:40:19.445Z,102190.47
2024-01-07T01:42:49.424Z,102182.69
2024-01-07T01:45:17.139Z,102194.94
2024-01-07T01:47:45.304Z,102196.75
2024-01-07T01:50:13.220Z,102192.34
2024-01-07T01:52:41.074Z,102193.16
2024-01-07T01:55:08.924Z,102200.13
2024-01-07T01:57:39.676Z,102212.28
2024-01-07T02:00:08.238Z,102211.47
2024-01-07T02:02:36.111Z,102213.28
2024-01-07T02:05:05.141Z,102216.88
2024-01-07T02:07:33.070Z,102235.75
2024-01-07T02:10:01.493Z,102219.34
2024-01-07T02:12:29.064Z,102219.34
2024-01-07T02:14:56.362Z,102226.22
2024-01-07T02:17:23.939Z,102225.41
2024-01-07T02:19:51.610Z,102224.53
2024-01-07T02:22:20.193Z,102226.34
2024-01-07T02:24:48.008Z,102241.94
2024-01-07T02:27:15.593Z,102223.84
2024-01-07T02:29:42.985Z,102217.66
2024-01-07T02:32:10.484Z,102224.63
2024-01-07T02:34:37.869Z,102232.41
2024-01-07T02:37:05.566Z,102227.34
2024-01-07T02:39:33.104Z,102230.81
2024-01-07T02:42:00.605Z,102246.34
2024-01-07T02:44:28.113Z,102241.16
2024-01-07T02:46:55.436Z,102245.44
2024-01-07T02:49:23.232Z,102246.34
2024-01-07T02:51:51.264Z,102250.81
2024-01-07T02:54:18.872Z,102256.94
2024-01-07T02:56:46.280Z,102259.50
2024-01-07T02:59:13.837Z,102261.19
2024-01-07T03:01:42.401Z,102260.41
2024-01-07T03:04:12.002Z,102260.53
2024-01-07T03:06:39.523Z,102270.75
2024-01-07T03:09:07.615Z,102282.88
2024-01-07T03:11:35.188Z,102275.94
2024-01-07T03:14:02.650Z,102268.28
2024-01-07T03:16:30.083Z,102281.22
2024-01-07T03:18:57.858Z,102283.81
2024-01-07T03:21:25.477Z,102298.41
2024-01-07T03:23:52.891Z,102299.22
2024-01-07T03:26:21.137Z,102298.41
2024-01-07T03:28:48.703Z,102307.84
2024-01-07T03:31:17.711Z,102303.50
2024-01-07T03:33:45.598Z,102306.97
2024-01-07T03:36:14.985Z,102316.31
2024-01-07T03:38:42.897Z,102315.19
2024-01-07T03:41:10.601Z,102316.06
2024-01-07T03:43:38.667Z,102316.97
2024-01-07T03:46:06.186Z,102322.13
2024-01-07T03:48:33.750Z,102327.22
2024-01-07T03:51:01.178Z,102334.06
2024-01-07T03:53:28.580Z,102344.41
2024-01-07T03:55:55.930Z,102332.94
2024-01-07T03:58:23.283Z,102336.56
2024-01-07T04:00:50.736Z,102344.31
2024-01-07T04:03:18.450Z,102342.63
2024-01-07T04:05:48.815Z,102344.41
2024-01-07T04:08:19.332Z,102352.06
2024-01-07T04:10:47.007Z,102354.66
2024-01-07T04:13:14.574Z,102353.75
2024-01-07T04:15:42.129Z,102369.25
2024-01-07T04:18:09.851Z,102377.94
2024-01-07T04:20:37.407Z,102380.63
2024-01-07T04:23:05.149Z,102369.50
2024-01-07T04:25:32.669Z,102361.88
2024-01-07T04:28:00.311Z,102374.13
2024-01-07T04:30:27.862Z,102381.09
2024-01-07T04:32:55.394Z,102381.09
2024-01-07T04:35:23.078Z,102381.88
2024-01-07T04:37:50.401Z,102388.88
2024-01-07T04:40:17.902Z,102401.13
2024-01-07T04:42:45.398Z,102422.72
2024-01-07T04:45:12.736Z,102402.00
2024-01-07T04:47:40.224Z,102396.84
2024-01-07T04:50:08.314Z,102406.41
2024-01-07T04:52:38.448Z,102413.38
2024-01-07T04:55:06.289Z,102413.25
2024-01-07T04:57:33.730Z,102417.78
2024-01-07T05:00:01.131Z,102417.78
2024-01-07T05:02:28.757Z,102429.81
2024-01-07T05:04:56.511Z,102444.53
2024-01-07T05:07:24.031Z,102433.31
2024-01-07T05:09:51.532Z,102420.38
2024-01-07T05:12:18.884Z,102429.81
2024-01-07T05:14:47.529Z,102440.38
2024-01-07T05:17:14.952Z,102442.97
2024-01-07T05:19:43.148Z,102447.50
2024-01-07T05:22:11.026Z,102436.34
2024-01-07T05:24:40.036Z,102449.28
2024-01-07T05:27:07.801Z,102464.03
2024-01-07T05:29:35.241Z,102455.47
2024-01-07T05:32:04.157Z,102470.22
2024-01-07T05:34:31.871Z,102493.41
2024-01-07T05:36:59.372Z,102479.56
2024-01-07T05:39:26.809Z,102480.47
2024-01-07T05:41:54.142Z,102491.72
2024-01-07T05:44:21.598Z,102502.94
2024-01-07T05:46:49.000Z,102484.06
2024-01-07T05:49:16.759Z,102497.91
2024-01-07T05:51:44.333Z,102495.19
2024-01-07T05:54:11.850Z,102504.66
2024-01-07T05:56:42.544Z,102512.41
2024-01-07T05:59:09.865Z,102518.38
2024-01-07T06:01:37.611Z,102509.81
2024-01-07T06:04:05.415Z,102517.47
2024-01-07T06:06:35.143Z,102522.63
2024-01-07T06:09:03.796Z,102531.41
2024-01-07T06:11:31.153Z,102528.81
2024-01-07T06:13:58.596Z,102542.69
2024-01-07T06:16:26.051Z,102558.22
2024-01-07T06:18:53.857Z,102573.63
2024-01-07T06:21:21.342Z,102550.34
2024-01-07T06:23:48.679Z,102556.41
2024-01-07T06:26:16.365Z,102552.91
2024-01-07T06:28:43.662Z,102556.19
2024-01-07T06:31:11.132Z,102563.94
2024-01-07T06:33:38.795Z,102558.66
2024-01-07T06:36:07.047Z,102575.84
2024-01-07T06:38:35.253Z,102574.81
2024-01-07T06:41:05.126Z,102578.22
2024-01-07T06:43:33.360Z,102575.50
2024-01-07T06:46:00.886Z,102595.31
2024-01-07T06:48:28.529Z,102585.59
2024-01-07T06:50:56.229Z,102583.81
2024-01-07T06:53:23.682Z,102593.78
2024-01-07T06:55:51.018Z,102599.75
2024-01-07T06:58:18.451Z,102600.66
2024-01-07T07:00:46.010Z,102600.50
2024-01-07T07:03:13.610Z,102607.38
2024-01-07T07:05:41.267Z,102631.47
2024-01-07T07:08:08.911Z,102624.47
2024-01-07T07:10:36.328Z,102639.31
2024-01-07T07:13:03.798Z,102635.16
2024-01-07T07:15:31.261Z,102644.88
2024-01-07T07:17:58.828Z,102649.38
2024-01-07T07:20:26.135Z,102657.16
2024-01-07T07:22:53.628Z,102652.88
2024-01-07T07:25:21.078Z,102654.69
2024-01-07T07:27:48.709Z,102666.81
2024-01-07T07:30:17.202Z,102672.13
2024-01-07T07:32:45.532Z,102678.09
2024-01-07T07:35:13.325Z,102682.34
2024-01-07T07:37:40.996Z,102686.00
2024-01-07T07:40:08.745Z,102698.13
2024-01-07T07:42:36.163Z,102686.88
2024-01-07T07:45:04.038Z,102693.63
2024-01-07T07:47:31.689Z,102690.38
2024-01-07T07:49:59.443Z,102685.31
2024-01-07T07:52:27.327Z,102688.03
2024-01-07T07:54:55.789Z,102701.75
2024-01-07T07:57:23.436Z,102705.22
2024-01-07T07:59:50.856Z,102724.25
2024-01-07T08:02:18.911Z,102719.22
2024-01-07T08:04:46.222Z,102720.25
2024-01-07T08:07:13.916Z,102724.50
2024-01-07T08:09:41.589Z,102729.66
2024-01-07T08:12:09.264Z,102737.56
2024-01-07T08:14:36.960Z,102725.50
2024-01-07T08:17:06.047Z,102724.88
2024-01-07T08:19:33.913Z,102728.63
2024-01-07T08:22:01.598Z,102725.34
2024-01-07T08:24:29.123Z,102728.97
2024-01-07T08:26:56.581Z,102724.94
2024-01-07T08:29:24.131Z,102738.00
2024-01-07T08:31:51.820Z,102737.34
2024-01-07T08:34:19.472Z,102736.56
2024-01-07T08:36:46.881Z,102744.47
2024-01-07T08:39:17.499Z,102748.97
2024-01-07T08:41:45.290Z,102749.88
2024-01-07T08:44:13.253Z,102751.69
2024-01-07T08:46:40.752Z,102759.59
2024-01-07T08:49:08.244Z,102751.91
2024-01-07T08:51:35.690Z,102764.97
2024-01-07T08:54:03.055Z,102764.97
2024-01-07T08:56:31.613Z,102772.13
2024-01-07T08:59:00.531Z,102770.41
2024-01-07T09:01:27.977Z,102786.97
2024-01-07T09:03:55.464Z,102779.09
2024-01-07T09:06:22.927Z,102777.50
2024-01-07T09:08:50.423Z,102795.00
2024-01-07T09:11:21.125Z,102792.63
2024-01-07T09:13:51.659Z,102787.59
2024-01-07T09:16:19.113Z,102801.56
2024-01-07T09:18:46.908Z,102794.81
2024-01-07T09:21:15.294Z,102791.69
2024-01-07T09:23:43.124Z,102793.50
2024-01-07T09:26:10.599Z,102797.25
2024-01-07T09:28:37.942Z,102795.41
2024-01-07T09:31:05.543Z,102806.03
2024-01-07T09:33:33.332Z,102799.16
2024-01-07T09:36:06.622Z,102808.19
2024-01-07T09:38:43.155Z,102800.44
2024-01-07T09:41:10.791Z,102800.44
2024-01-07T09:43:38.272Z,102810.00
2024-01-07T09:46:05.810Z,102808.97
2024-01-07T09:48:34.925Z,102804.59
2024-01-07T09:51:02.786Z,102816.63
2024-01-07T09:53:33.642Z,102823.50
2024-01-07T09:56:30.934Z,102817.28
2024-01-07T09:58:58.588Z,102822.59
2024-01-07T10:01:27.483Z,102827.63
2024-01-07T10:03:55.241Z,102831.69
2024-01-07T10:06:22.572Z,102832.31
2024-01-07T10:08:50.032Z,102840.31
2024-01-07T10:11:17.881Z,102825.41
2024-01-07T10:13:49.187Z,102837.34
2024-01-07T10:16:16.977Z,102832.72
2024-01-07T10:18:44.842Z,102840.25
2024-01-07T10:21:12.367Z,102837.44
2024-01-07T10:23:39.966Z,102845.84
2024-01-07T10:26:15.566Z,102839.50
2024-01-07T10:28:50.963Z,102836.56
2024-01-07T10:31:18.788Z,102843.31
2024-01-07T10:33:46.401Z,102844.09
2024-01-07T10:36:13.821Z,102842.28
2024-01-07T10:38:44.589Z,102848.25
2024-01-07T10:41:13.495Z,102840.84
2024-01-07T10:43:43.241Z,102850.00
2024-01-07T10:46:13.265Z,102848.56
2024-01-07T10:48:52.414Z,102849.72
2024-01-07T10:51:21.587Z,102856.16
2024-01-07T10:53:57.179Z,102853.72
2024-01-07T10:56:26.213Z,102870.16
2024-01-07T10:58:55.980Z,102869.13
2024-01-07T11:01:23.500Z,102868.31
2024-01-07T11:04:04.074Z,102863.28
2024-01-07T11:06:50.715Z,102866.88
2024-01-07T11:09:21.320Z,102876.22
2024-01-07T11:11:49.025Z,102871.59
2024-01-07T11:14:54.092Z,102870.81
2024-01-07T11:17:33.982Z,102878.34
2024-01-07T11:20:01.676Z,102878.88
2024-01-07T11:22:29.919Z,102871.25
2024-01-07T11:24:59.479Z,102880.03
2024-01-07T11:27:32.608Z,102879.91
2024-01-07T11:30:20.681Z,102882.38
2024-01-07T11:32:50.909Z,102880.56
2024-01-07T11:35:58.841Z,102880.44
2024-01-07T11:38:26.412Z,102882.91
2024-01-07T11:40:56.355Z,102877.34
2024-01-07T11:43:24.134Z,102879.94
2024-01-07T11:45:53.035Z,102884.09
2024-01-07T11:48:20.761Z,102880.75
2024-01-07T11:50:49.691Z,102885.38
2024-01-07T11:53:18.416Z,102889.78
2024-01-07T11:55:46.515Z,102883.03
2024-01-07T11:58:14.465Z,102880.81
2024-01-07T12:00:42.008Z,102879.63
2024-01-07T12:03:09.641Z,102878.41
2024-01-07T12:05:37.089Z,102877.97
2024-01-07T12:08:04.895Z,102874.97
2024-01-07T12:10:32.529Z,102884.56
2024-01-07T12:13:00.447Z,102888.81
2024-01-07T12:15:29.250Z,102886.97
2024-01-07T12:18:01.099Z,102885.22
2024-01-07T12:20:29.308Z,102872.44
2024-01-07T12:23:10.221Z,102892.66
2024-01-07T12:25:38.230Z,102883.34
2024-01-07T12:28:08.027Z,102883.13
2024-01-07T12:30:35.956Z,102884.91
2024-01-07T12:33:06.711Z,102885.59
2024-01-07T12:35:35.328Z,102885.59
2024-01-07T12:38:03.814Z,102891.78
2024-01-07T12:40:31.418Z,102888.53
2024-01-07T12:42:59.131Z,102884.41
2024-01-07T12:45:26.549Z,102890.63
2024-01-07T12:47:55.994Z,102889.28
2024-01-07T12:50:24.591Z,102897.56
2024-01-07T12:52:52.090Z,102889.88
2024-01-07T12:55:19.680Z,102892.59
2024-01-07T12:57:47.279Z,102905.56
2024-01-07T13:00:15.415Z,102901.41
2024-01-07T13:02:43.289Z,102907.38
2024-01-07T13:05:11.059Z,102895.75
2024-01-07T13:07:39.902Z,102901.06
2024-01-07T13:10:08.134Z,102899.63
2024-01-07T13:12:43.373Z,102897.91
2024-01-07T13:15:17.983Z,102904.25
2024-01-07T13:17:46.156Z,102904.75
2024-01-07T13:20:14.015Z,102911.97
2024-01-07T13:22:42.074Z,102907.94
2024-01-07T13:25:09.614Z,102914.81
2024-01-07T13:27:38.230Z,102914.22
2024-01-07T13:30:07.331Z,102916.06
2024-01-07T13:32:38.194Z,102918.03
2024-01-07T13:35:11.940Z,102917.56
2024-01-07T13:37:42.611Z,102916.25
2024-01-07T13:40:12.102Z,102921.19
2024-01-07T13:42:39.650Z,102924.31
2024-01-07T13:45:07.468Z,102926.13
2024-01-07T13:47:36.927Z,102933.91
2024-01-07T13:50:05.101Z,102924.56
2024-01-07T13:52:34.066Z,102926.38
2024-01-07T13:55:01.747Z,102924.81
2024-01-07T13:57:29.224Z,102935.28
2024-01-07T13:59:56.700Z,102933.63
2024-01-07T14:02:24.247Z,102935.16
2024-01-07T14:04:53.068Z,102932.69
2024-01-07T14:07:22.561Z,102931.81
2024-01-07T14:09:51.038Z,102945.91
2024-01-07T14:12:18.427Z,102943.31
2024-01-07T14:14:45.760Z,102939.84
2024-01-07T14:17:13.699Z,102937.00
2024-01-07T14:19:41.264Z,102936.22
2024-01-07T14:22:08.718Z,102939.59
2024-01-07T14:24:36.251Z,102948.25
2024-01-07T14:27:03.919Z,102943.72
2024-01-07T14:29:31.446Z,102952.94
2024-01-07T14:31:59.030Z,102955.25
2024-01-07T14:34:26.691Z,102959.28
2024-01-07T14:36:54.457Z,102954.09
2024-01-07T14:39:21.901Z,102959.06
2024-01-07T14:41:49.404Z,102968.50
2024-01-07T14:44:17.048Z,102967.34
2024-01-07T14:46:44.595Z,102968.91
2024-01-07T14:49:12.062Z,102976.41
2024-01-07T14:51:39.522Z,102974.59
2024-01-07T14:54:06.983Z,102965.66
2024-01-07T14:56:34.355Z,102973.31
2024-01-07T14:59:01.640Z,102979.25
2024-01-07T15:01:29.998Z,102973.72
2024-01-07T15:03:57.595Z,102980.56
2024-01-07T15:06:25.133Z,102975.16
2024-01-07T15:08:52.572Z,102976.69
2024-01-07T15:11:20.106Z,102987.69
2024-01-07T15:13:47.901Z,102978.00
2024-01-07T15:16:15.336Z,102993.25
2024-01-07T15:18:43.000Z,102987.03
2024-01-07T15:21:10.631Z,103004.91
2024-01-07T15:23:38.257Z,102994.97
2024-01-07T15:26:06.062Z,103010.22
2024-01-07T15:28:35.469Z,103005.78
2024-01-07T15:31:02.984Z,103009.03
2024-01-07T15:33:30.658Z,103013.31
2024-01-07T15:35:58.111Z,103014.88
2024-01-07T15:38:26.163Z,103018.88
2024-01-07T15:40:53.408Z,103023.16
2024-01-07T15:43:20.947Z,103022.13
2024-01-07T15:45:48.559Z,103031.41
2024-01-07T15:48:16.074Z,103030.38
2024-01-07T15:50:43.549Z,103034.50
2024-01-07T15:53:12.399Z,103036.19
2024-01-07T15:55:39.929Z,103035.91
2024-01-07T15:58:07.304Z,103038.25
2024-01-07T16:00:34.913Z,103046.03
2024-01-07T16:03:02.414Z,103045.00
2024-01-07T16:05:31.130Z,103040.44
2024-01-07T16:07:58.681Z,103055.06
2024-01-07T16:10:26.232Z,103056.59
2024-01-07T16:12:53.746Z,103049.59
2024-01-07T16:15:21.136Z,103058.91
2024-01-07T16:17:48.756Z,103052.69
2024-01-07T16:20:17.011Z,103061.25
2024-01-07T16:22:44.465Z,103068.72
2024-01-07T16:25:11.883Z,103069.47
2024-01-07T16:27:40.401Z,103067.53
2024-01-07T16:30:11.605Z,103072.72
2024-01-07T16:32:39.488Z,103082.03
2024-01-07T16:35:07.439Z,103080.97
2024-01-07T16:37:34.862Z,103079.03
2024-01-07T16:40:02.457Z,103090.00
2024-01-07T16:42:29.934Z,103090.66
2024-01-07T16:44:57.230Z,103081.06
2024-01-07T16:47:24.835Z,103085.34
2024-01-07T16:50:20.540Z,103085.84
2024-01-07T16:52:39.886Z,103087.38
2024-01-07T16:55:09.868Z,103088.00
2024-01-07T16:57:38.598Z,103092.13
2024-01-07T17:00:07.861Z,103101.44
2024-01-07T17:02:35.424Z,103093.44
2024-01-07T17:05:03.012Z,103094.19
2024-01-07T17:07:31.726Z,103112.13
2024-01-07T17:09:59.236Z,103104.22
2024-01-07T17:12:26.561Z,103105.03
2024-01-07T17:14:54.031Z,103112.78
2024-01-07T17:17:21.496Z,103113.41
2024-01-07T17:19:49.792Z,103111.72
2024-01-07T17:22:17.309Z,103120.25
2024-01-07T17:24:45.424Z,103115.84
2024-01-07T17:27:13.068Z,103121.03
2024-01-07T17:29:40.431Z,103122.81
2024-01-07T17:32:11.593Z,103127.38
2024-01-07T17:34:39.149Z,103122.97
2024-01-07T17:37:06.659Z,103121.16
2024-01-07T17:39:34.813Z,103130.56
2024-01-07T17:42:07.194Z,103135.75
2024-01-07T17:44:34.863Z,103142.59
2024-01-07T17:47:02.358Z,103127.09
2024-01-07T17:49:29.901Z,103146.38
2024-01-07T17:51:57.797Z,103140.31
2024-01-07T17:54:25.188Z,103138.63
2024-01-07T17:56:52.743Z,103145.59
2024-01-07T17:59:21.036Z,103150.75
2024-01-07T18:01:49.716Z,103148.94
2024-01-07T18:04:17.213Z,103153.34
2024-01-07T18:06:45.316Z,103155.81
2024-01-07T18:09:13.053Z,103166.25
2024-01-07T18:11:40.719Z,103160.03
2024-01-07T18:14:08.382Z,103162.63
2024-01-07T18:16:37.652Z,103156.56
2024-01-07T18:19:07.617Z,103163.41
2024-01-07T18:21:35.308Z,103162.38
2024-01-07T18:24:02.864Z,103162.22
2024-01-07T18:26:31.003Z,103169.22
2024-01-07T18:28:58.919Z,103172.72
2024-01-07T18:31:26.249Z,103170.88
2024-01-07T18:33:53.788Z,103173.47
2024-01-07T18:36:21.522Z,103176.97
2024-01-07T18:38:49.208Z,103177.88
2024-01-07T18:41:22.661Z,103182.91
2024-01-07T18:43:52.417Z,103185.50
2024-01-07T18:46:20.022Z,103185.50
2024-01-07T18:48:49.122Z,103192.34
2024-01-07T18:51:16.769Z,103189.75
2024-01-07T18:53:44.343Z,103194.94
2024-01-07T18:56:11.822Z,103191.91
2024-01-07T18:58:40.875Z,103208.34
2024-01-07T19:01:08.693Z,103207.16
2024-01-07T19:03:36.308Z,103217.19
2024-01-07T19:06:04.214Z,103202.94
2024-01-07T19:08:32.250Z,103204.47
2024-01-07T19:10:59.727Z,103206.63
2024-01-07T19:13:27.559Z,103219.41
2024-01-07T19:15:55.091Z,103214.88
2024-01-07T19:18:22.702Z,103215.47
2024-01-07T19:20:50.128Z,103224.91
2024-01-07T19:23:17.850Z,103228.41
2024-01-07T19:25:47.271Z,103233.72
2024-01-07T19:28:15.993Z,103227.00
2024-01-07T19:30:46.067Z,103234.00
2024-01-07T19:33:15.371Z,103235.81
2024-01-07T19:35:42.985Z,103232.47
2024-01-07T19:38:10.389Z,103235.94
2024-01-07T19:40:37.825Z,103232.72
2024-01-07T19:43:06.577Z,103228.50
2024-01-07T19:45:33.926Z,103230.16
2024-01-07T19:48:02.219Z,103228.75
2024-01-07T19:50:29.825Z,103234.06
2024-01-07T19:52:57.770Z,103243.66
2024-01-07T19:55:25.220Z,103260.06
2024-01-07T19:57:52.833Z,103240.16
2024-01-07T20:00:20.535Z,103252.31
2024-01-07T20:02:50.423Z,103238.59
2024-01-07T20:05:18.617Z,103237.72
2024-01-07T20:07:46.181Z,103247.28
2024-01-07T20:10:13.606Z,103244.72
2024-01-07T20:12:41.141Z,103234.38
2024-01-07T20:15:08.988Z,103238.75
2024-01-07T20:17:37.472Z,103248.19
2024-01-07T20:20:05.449Z,103257.63
2024-01-07T20:22:33.147Z,103249.59
2024-01-07T20:25:00.556Z,103254.75
2024-01-07T20:27:28.129Z,103247.16
2024-01-07T20:29:55.922Z,103249.59
2024-01-07T20:32:24.355Z,103251.41
2024-01-07T20:34:53.571Z,103254.00
2024-01-07T20:37:21.033Z,103261.75
2024-01-07T20:39:48.538Z,103252.16
2024-01-07T20:42:27.336Z,103259.16
2024-01-07T20:45:04.892Z,103261.75
2024-01-07T20:47:33.220Z,103252.47
2024-01-07T20:50:00.787Z,103273.13
2024-01-07T20:52:29.296Z,103270.41
2024-01-07T20:54:56.776Z,103271.78
2024-01-07T20:57:27.333Z,103264.78
2024-01-07T20:59:54.933Z,103275.28
2024-01-07T21:02:22.496Z,103271.16
2024-01-07T21:04:51.455Z,103273.13
2024-01-07T21:07:18.908Z,103267.19
2024-01-07T21:09:46.274Z,103269.91
2024-01-07T21:12:14.205Z,103276.91
2024-01-07T21:14:41.616Z,103271.75
2024-01-07T21:17:09.823Z,103270.06
2024-01-07T21:19:37.254Z,103272.50
2024-01-07T21:22:04.916Z,103267.19
2024-01-07T21:24:32.543Z,103273.13
2024-01-07T21:27:00.898Z,103256.59
2024-01-07T21:29:28.510Z,103272.09
2024-01-07T21:31:56.130Z,103257.19
2024-01-07T21:34:23.553Z,103266.78
2024-01-07T21:36:52.420Z,103274.53
2024-01-07T21:39:22.407Z,103272.69
2024-01-07T21:41:50.638Z,103275.28
2024-01-07T21:44:18.152Z,103279.53
2024-01-07T21:46:49.520Z,103279.84
2024-01-07T21:49:18.193Z,103284.06
2024-01-07T21:51:45.934Z,103272.84
2024-01-07T21:54:13.673Z,103266.13
2024-01-07T21:56:41.121Z,103274.94
2024-01-07T21:59:08.937Z,103269.75
2024-01-07T22:01:36.466Z,103277.50
2024-01-07T22:04:03.945Z,103278.56
2024-01-07T22:06:31.519Z,103282.97
2024-01-07T22:08:59.012Z,103295.91
2024-01-07T22:11:26.561Z,103293.16
2024-01-07T22:13:54.145Z,103285.41
2024-01-07T22:16:21.804Z,103288.00
2024-01-07T22:18:49.183Z,103281.78
2024-01-07T22:21:19.944Z,103282.53
2024-01-07T22:23:47.835Z,103291.22
2024-01-07T22:26:15.536Z,103287.84
2024-01-07T22:28:46.822Z,103298.03
2024-01-07T22:31:14.978Z,103290.16
2024-01-07T22:33:42.825Z,103291.06
2024-01-07T22:36:10.715Z,103298.03
2024-01-07T22:38:38.445Z,103297.13
2024-01-07T22:41:08.347Z,103298.81
2024-01-07T22:43:35.825Z,103305.38
2024-01-07T22:46:03.333Z,103304.47
2024-01-07T22:48:33.254Z,103315.56
2024-01-07T22:51:01.389Z,103311.28
2024-01-07T22:53:29.165Z,103313.88
2024-01-07T22:55:56.663Z,103313.13
2024-01-07T22:58:24.172Z,103320.72
2024-01-07T23:00:51.898Z,103313.88
2024-01-07T23:03:19.765Z,103311.44
2024-01-07T23:05:47.409Z,103319.97
2024-01-07T23:08:16.813Z,103318.44
2024-01-07T23:10:44.445Z,103315.72
2024-01-07T23:13:11.984Z,103329.53
2024-01-07T23:15:39.596Z,103321.78
2024-01-07T23:18:07.532Z,103324.50
2024-01-07T23:20:36.045Z,103321.63
2024-01-07T23:23:03.977Z,103312.81
2024-01-07T23:25:31.408Z,103312.81
2024-01-07T23:27:58.984Z,103312.81
2024-01-07T23:30:26.603Z,103320.47
2024-01-07T23:32:54.164Z,103311.50
2024-01-07T23:35:21.871Z,103311.50
2024-01-07T23:37:49.604Z,103312.25
2024-01-07T23:40:16.986Z,103309.66
2024-01-07T23:42:44.647Z,103310.91
2024-01-07T23:45:12.066Z,103317.34
2024-01-07T23:47:39.992Z,103310.06
2024-01-07T23:50:12.917Z,103319.78
2024-01-07T23:52:40.743Z,103313.56
2024-01-07T23:55:08.670Z,103315.88
2024-01-07T23:57:36.075Z,103319.84
